createdAt,value
2019-03-30T00:01:26.309Z,88.60
2019-03-30T00:03:56.241Z,88.80
2019-03-30T00:06:27.187Z,88.80
2019-03-30T00:08:57.419Z,88.80
2019-03-30T00:11:27.628Z,88.90
2019-03-30T00:13:57.590Z,89.10
2019-03-30T00:16:27.525Z,89.00
2019-03-30T00:18:59.745Z,89.10
2019-03-30T00:21:30.443Z,89.20
2019-03-30T00:24:00.620Z,89.10
2019-03-30T00:26:30.576Z,89.20
2019-03-30T00:29:00.815Z,89.20
2019-03-30T00:31:30.827Z,89.30
2019-03-30T00:34:02.340Z,89.00
2019-03-30T00:36:32.250Z,89.00
2019-03-30T00:39:03.194Z,88.90
2019-03-30T00:41:33.955Z,89.10
2019-03-30T00:44:03.856Z,89.10
2019-03-30T00:46:35.445Z,89.10
2019-03-30T00:49:05.345Z,89.80
2019-03-30T00:51:36.087Z,89.00
2019-03-30T00:54:07.654Z,89.10
2019-03-30T00:56:37.785Z,89.20
2019-03-30T00:59:07.663Z,89.20
2019-03-30T01:01:40.625Z,89.10
2019-03-30T01:04:11.524Z,89.20
2019-03-30T01:06:42.850Z,89.20
2019-03-30T01:09:15.551Z,89.30
2019-03-30T01:11:46.449Z,89.40
2019-03-30T01:14:17.909Z,89.20
2019-03-30T01:16:47.831Z,89.10
2019-03-30T01:19:17.541Z,89.20
2019-03-30T01:21:48.594Z,89.20
2019-03-30T01:24:18.583Z,89.20
2019-03-30T01:26:49.954Z,89.20
2019-03-30T01:29:20.463Z,89.30
2019-03-30T01:31:50.434Z,89.30
2019-03-30T01:34:20.346Z,89.30
2019-03-30T01:36:50.725Z,89.30
2019-03-30T01:39:21.069Z,89.40
2019-03-30T01:41:51.022Z,89.40
2019-03-30T01:44:21.899Z,89.40
2019-03-30T01:46:52.327Z,89.40
2019-03-30T01:49:23.600Z,89.40
2019-03-30T01:51:53.483Z,89.40
2019-03-30T01:54:23.412Z,89.50
2019-03-30T01:56:53.624Z,89.50
2019-03-30T01:59:23.533Z,89.50
2019-03-30T02:01:53.460Z,89.50
2019-03-30T02:04:23.320Z,89.50
2019-03-30T02:06:54.068Z,89.50
2019-03-30T02:09:25.665Z,89.60
2019-03-30T02:11:56.028Z,89.70
2019-03-30T02:14:25.838Z,89.50
2019-03-30T02:16:55.658Z,89.50
2019-03-30T02:19:25.618Z,89.60
2019-03-30T02:21:55.915Z,89.60
2019-03-30T02:24:26.364Z,89.90
2019-03-30T02:26:56.199Z,89.90
2019-03-30T02:29:26.690Z,89.90
2019-03-30T02:31:57.105Z,90.00
2019-03-30T02:34:28.484Z,90.00
2019-03-30T02:36:58.981Z,90.00
2019-03-30T02:39:29.987Z,90.00
2019-03-30T02:41:59.994Z,90.00
2019-03-30T02:44:30.632Z,90.00
2019-03-30T02:47:01.500Z,90.10
2019-03-30T02:49:31.442Z,90.00
2019-03-30T02:52:01.513Z,90.20
2019-03-30T02:54:31.410Z,90.20
2019-03-30T02:57:02.521Z,90.30
2019-03-30T02:59:32.433Z,90.20
2019-03-30T03:02:02.324Z,90.20
2019-03-30T03:04:32.266Z,90.30
2019-03-30T03:07:03.426Z,90.30
2019-03-30T03:09:33.355Z,90.20
2019-03-30T03:12:03.674Z,90.40
2019-03-30T03:14:33.765Z,90.30
2019-03-30T03:17:03.640Z,90.30
2019-03-30T03:19:34.335Z,90.30
2019-03-30T03:22:04.865Z,90.30
2019-03-30T03:24:34.760Z,90.30
2019-03-30T03:27:04.666Z,90.30
2019-03-30T03:29:34.486Z,90.40
2019-03-30T03:32:05.147Z,90.30
2019-03-30T03:34:34.953Z,90.50
2019-03-30T03:37:06.339Z,90.40
2019-03-30T03:39:36.263Z,90.40
2019-03-30T03:42:06.290Z,90.40
2019-03-30T03:44:36.167Z,90.40
2019-03-30T03:47:06.091Z,90.40
2019-03-30T03:49:35.940Z,90.40
2019-03-30T03:52:08.744Z,90.50
2019-03-30T03:54:40.971Z,90.50
2019-03-30T03:57:14.307Z,90.50
2019-03-30T03:59:45.662Z,90.60
2019-03-30T04:02:18.390Z,90.60
2019-03-30T04:04:51.619Z,90.70
2019-03-30T04:07:24.127Z,90.60
2019-03-30T04:09:57.045Z,90.80
2019-03-30T04:12:30.263Z,90.70
2019-03-30T04:15:03.175Z,90.60
2019-03-30T04:17:32.999Z,90.60
2019-03-30T04:20:03.292Z,90.70
2019-03-30T04:22:33.694Z,90.70
2019-03-30T04:25:03.752Z,90.60
2019-03-30T04:27:33.580Z,90.70
2019-03-30T04:30:03.817Z,90.70
2019-03-30T04:32:33.605Z,90.80
2019-03-30T04:35:03.853Z,90.80
2019-03-30T04:37:33.836Z,90.80
2019-03-30T04:40:04.457Z,90.80
2019-03-30T04:42:34.940Z,90.80
2019-03-30T04:45:07.542Z,90.80
2019-03-30T04:47:37.475Z,90.90
2019-03-30T04:50:08.208Z,90.80
2019-03-30T04:52:38.818Z,90.90
2019-03-30T04:55:09.051Z,90.90
2019-03-30T04:57:38.996Z,90.90
2019-03-30T05:00:10.660Z,90.90
2019-03-30T05:02:40.425Z,90.90
2019-03-30T05:05:10.740Z,90.90
2019-03-30T05:07:41.612Z,90.90
2019-03-30T05:10:11.732Z,90.90
2019-03-30T05:12:41.483Z,90.90
2019-03-30T05:15:11.598Z,90.90
2019-03-30T05:17:47.623Z,91.00
2019-03-30T05:20:13.535Z,91.00
2019-03-30T05:22:43.659Z,91.00
2019-03-30T05:25:15.027Z,91.00
2019-03-30T05:27:44.874Z,91.10
2019-03-30T05:30:15.329Z,91.10
2019-03-30T05:32:45.145Z,91.10
2019-03-30T05:35:14.999Z,91.10
2019-03-30T05:37:44.866Z,91.10
2019-03-30T05:40:14.740Z,91.10
2019-03-30T05:42:44.541Z,91.20
2019-03-30T05:45:14.722Z,91.30
2019-03-30T05:47:44.816Z,91.20
2019-03-30T05:50:14.628Z,91.30
2019-03-30T05:52:44.435Z,91.50
2019-03-30T05:55:15.046Z,91.40
2019-03-30T05:57:45.027Z,91.50
2019-03-30T06:00:17.093Z,91.50
2019-03-30T06:02:47.788Z,91.60
2019-03-30T06:05:17.545Z,91.50
2019-03-30T06:07:51.149Z,91.60
2019-03-30T06:10:21.051Z,91.80
2019-03-30T06:12:50.887Z,91.70
2019-03-30T06:15:22.128Z,91.70
2019-03-30T06:17:53.866Z,91.70
2019-03-30T06:20:24.372Z,91.60
2019-03-30T06:22:55.239Z,91.60
2019-03-30T06:25:25.192Z,91.60
2019-03-30T06:27:55.060Z,91.40
2019-03-30T06:30:28.423Z,91.30
2019-03-30T06:32:58.483Z,91.30
2019-03-30T06:35:28.395Z,91.10
2019-03-30T06:37:58.208Z,91.10
2019-03-30T06:40:28.015Z,90.80
2019-03-30T06:42:57.851Z,90.80
2019-03-30T06:45:27.692Z,90.60
2019-03-30T06:47:57.572Z,90.50
2019-03-30T06:50:27.508Z,90.40
2019-03-30T06:52:58.900Z,90.20
2019-03-30T06:55:28.908Z,90.20
2019-03-30T06:57:58.764Z,90.10
2019-03-30T07:00:34.428Z,90.00
2019-03-30T07:03:06.680Z,90.00
2019-03-30T07:05:41.908Z,89.30
2019-03-30T07:08:16.241Z,89.20
2019-03-30T07:10:46.686Z,88.60
2019-03-30T07:13:16.919Z,88.60
2019-03-30T07:15:48.853Z,88.20
2019-03-30T07:18:19.633Z,88.40
2019-03-30T07:20:50.569Z,87.40
2019-03-30T07:23:20.440Z,88.60
2019-03-30T07:25:51.459Z,87.00
2019-03-30T07:28:21.637Z,86.40
2019-03-30T07:30:51.557Z,86.30
2019-03-30T07:33:21.433Z,86.30
2019-03-30T07:35:51.703Z,85.80
2019-03-30T07:38:21.627Z,85.40
2019-03-30T07:40:51.492Z,84.20
2019-03-30T07:43:21.618Z,85.10
2019-03-30T07:45:51.949Z,83.70
2019-03-30T07:48:21.795Z,84.20
2019-03-30T07:50:51.622Z,83.40
2019-03-30T07:53:26.635Z,83.70
2019-03-30T07:56:07.685Z,83.00
2019-03-30T07:58:26.999Z,80.90
2019-03-30T08:00:56.829Z,80.80
2019-03-30T08:03:26.834Z,80.90
2019-03-30T08:05:56.878Z,79.70
2019-03-30T08:08:26.728Z,79.70
2019-03-30T08:10:58.750Z,80.20
2019-03-30T08:13:28.738Z,79.20
2019-03-30T08:15:58.520Z,79.50
2019-03-30T08:18:29.076Z,79.70
2019-03-30T08:21:00.280Z,79.30
2019-03-30T08:23:40.135Z,79.50
2019-03-30T08:26:01.804Z,79.50
2019-03-30T08:28:31.675Z,78.40
2019-03-30T08:31:01.587Z,78.90
2019-03-30T08:33:33.037Z,79.20
2019-03-30T08:36:02.851Z,77.60
2019-03-30T08:38:32.825Z,78.90
2019-03-30T08:41:02.750Z,77.50
2019-03-30T08:43:32.557Z,76.40
2019-03-30T08:46:02.393Z,77.30
2019-03-30T08:48:32.466Z,76.70
2019-03-30T08:51:03.144Z,75.70
2019-03-30T08:53:33.094Z,75.80
2019-03-30T08:56:03.696Z,76.00
2019-03-30T08:58:36.409Z,75.80
2019-03-30T09:01:06.799Z,75.50
2019-03-30T09:03:36.672Z,75.30
2019-03-30T09:06:06.630Z,75.10
2019-03-30T09:08:36.570Z,73.60
2019-03-30T09:11:06.403Z,72.90
2019-03-30T09:13:37.072Z,72.40
2019-03-30T09:16:06.905Z,71.90
2019-03-30T09:18:39.304Z,70.90
2019-03-30T09:21:10.153Z,71.00
2019-03-30T09:23:40.703Z,69.50
2019-03-30T09:26:11.320Z,69.00
2019-03-30T09:28:41.149Z,68.70
2019-03-30T09:31:11.006Z,68.80
2019-03-30T09:33:40.813Z,67.50
2019-03-30T09:36:10.691Z,66.70
2019-03-30T09:38:40.618Z,66.60
2019-03-30T09:41:12.480Z,66.40
2019-03-30T09:43:42.368Z,64.80
2019-03-30T09:46:12.265Z,65.40
2019-03-30T09:48:42.952Z,63.50
2019-03-30T09:51:12.933Z,64.20
2019-03-30T09:53:42.904Z,63.60
2019-03-30T09:56:13.079Z,60.10
2019-03-30T09:58:43.040Z,62.50
2019-03-30T10:01:13.361Z,62.40
2019-03-30T10:03:43.220Z,62.80
2019-03-30T10:06:13.034Z,60.90
2019-03-30T10:08:42.919Z,58.60
2019-03-30T10:11:12.806Z,60.80
2019-03-30T10:13:43.542Z,60.10
2019-03-30T10:16:13.397Z,60.00
2019-03-30T10:18:43.129Z,60.20
2019-03-30T10:21:13.629Z,60.90
2019-03-30T10:23:43.535Z,60.40
2019-03-30T10:26:13.358Z,59.60
2019-03-30T10:28:43.201Z,59.10
2019-03-30T10:31:13.009Z,59.60
2019-03-30T10:33:42.874Z,59.30
2019-03-30T10:36:12.850Z,59.90
2019-03-30T10:38:42.688Z,59.50
2019-03-30T10:41:13.031Z,58.90
2019-03-30T10:43:42.929Z,58.00
2019-03-30T10:46:12.719Z,58.10
2019-03-30T10:48:43.129Z,58.70
2019-03-30T10:51:12.974Z,58.90
2019-03-30T10:53:42.764Z,58.10
2019-03-30T10:56:12.590Z,56.10
2019-03-30T10:58:42.400Z,57.80
2019-03-30T11:01:13.355Z,56.30
2019-03-30T11:03:43.315Z,57.60
2019-03-30T11:06:13.170Z,57.70
2019-03-30T11:08:42.875Z,56.60
2019-03-30T11:11:12.595Z,58.30
2019-03-30T11:13:42.532Z,58.40
2019-03-30T11:16:14.036Z,55.10
2019-03-30T11:18:43.796Z,56.90
2019-03-30T11:21:14.468Z,56.40
2019-03-30T11:23:45.052Z,56.80
2019-03-30T11:26:15.163Z,56.80
2019-03-30T11:28:45.070Z,56.30
2019-03-30T11:31:14.822Z,56.50
2019-03-30T11:33:44.650Z,56.40
2019-03-30T11:36:14.482Z,53.80
2019-03-30T11:38:45.083Z,54.00
2019-03-30T11:41:15.568Z,54.90
2019-03-30T11:43:45.350Z,54.10
2019-03-30T11:46:15.162Z,53.50
2019-03-30T11:48:45.001Z,52.00
2019-03-30T11:51:14.721Z,50.40
2019-03-30T11:53:44.543Z,52.30
2019-03-30T11:56:14.334Z,53.00
2019-03-30T11:58:44.075Z,52.30
2019-03-30T12:01:13.826Z,52.30
2019-03-30T12:03:43.661Z,51.40
2019-03-30T12:06:13.386Z,51.30
2019-03-30T12:08:43.815Z,50.50
2019-03-30T12:11:14.395Z,49.70
2019-03-30T12:13:44.245Z,47.50
2019-03-30T12:16:13.954Z,48.10
2019-03-30T12:18:43.763Z,46.50
2019-03-30T12:21:13.596Z,47.20
2019-03-30T12:23:43.415Z,48.30
2019-03-30T12:26:13.260Z,46.20
2019-03-30T12:28:43.081Z,47.70
2019-03-30T12:31:12.951Z,47.20
2019-03-30T12:33:42.804Z,46.80
2019-03-30T12:36:12.779Z,46.50
2019-03-30T12:38:42.735Z,46.40
2019-03-30T12:41:12.580Z,46.20
2019-03-30T12:43:43.880Z,46.20
2019-03-30T12:46:13.749Z,46.20
2019-03-30T12:48:43.556Z,45.10
2019-03-30T12:51:13.346Z,45.60
2019-03-30T12:53:49.981Z,45.50
2019-03-30T12:56:14.768Z,45.60
2019-03-30T12:58:44.496Z,45.30
2019-03-30T13:01:15.603Z,45.10
2019-03-30T13:03:45.654Z,44.70
2019-03-30T13:06:15.500Z,44.10
2019-03-30T13:08:45.415Z,44.20
2019-03-30T13:11:15.223Z,44.60
2019-03-30T13:13:44.981Z,44.00
2019-03-30T13:16:14.710Z,44.30
2019-03-30T13:18:44.559Z,44.20
2019-03-30T13:21:14.280Z,44.50
2019-03-30T13:23:44.899Z,43.70
2019-03-30T13:26:14.644Z,43.40
2019-03-30T13:28:44.458Z,43.60
2019-03-30T13:31:14.289Z,42.30
2019-03-30T13:33:43.870Z,42.00
2019-03-30T13:36:14.754Z,42.60
2019-03-30T13:38:44.540Z,43.10
2019-03-30T13:41:14.603Z,43.90
2019-03-30T13:43:45.015Z,43.60
2019-03-30T13:46:14.940Z,43.40
2019-03-30T13:48:44.877Z,43.90
2019-03-30T13:51:14.596Z,44.50
2019-03-30T13:53:44.404Z,45.20
2019-03-30T13:56:17.534Z,45.30
2019-03-30T13:58:45.567Z,45.00
2019-03-30T14:01:16.298Z,45.40
2019-03-30T14:03:46.003Z,46.30
2019-03-30T14:06:16.070Z,46.30
2019-03-30T14:08:46.625Z,46.40
2019-03-30T14:11:16.446Z,46.80
2019-03-30T14:13:46.294Z,45.80
2019-03-30T14:16:16.005Z,46.30
2019-03-30T14:18:46.306Z,46.50
2019-03-30T14:21:16.274Z,45.70
2019-03-30T14:23:46.021Z,45.40
2019-03-30T14:26:30.440Z,45.80
2019-03-30T14:28:48.104Z,45.50
2019-03-30T14:31:17.898Z,45.20
2019-03-30T14:33:47.720Z,45.30
2019-03-30T14:36:17.364Z,46.00
2019-03-30T14:38:47.203Z,46.10
2019-03-30T14:41:16.977Z,46.40
2019-03-30T14:43:47.023Z,46.50
2019-03-30T14:46:16.934Z,46.80
2019-03-30T14:48:46.721Z,47.00
2019-03-30T14:51:16.478Z,46.50
2019-03-30T14:53:46.291Z,46.80
2019-03-30T14:56:16.043Z,46.90
2019-03-30T14:58:46.114Z,47.00
2019-03-30T15:01:16.089Z,47.10
2019-03-30T15:03:45.890Z,47.10
2019-03-30T15:06:15.690Z,47.20
2019-03-30T15:08:45.415Z,47.00
2019-03-30T15:11:15.153Z,47.20
2019-03-30T15:13:44.998Z,47.30
2019-03-30T15:16:15.028Z,47.70
2019-03-30T15:18:44.841Z,47.80
2019-03-30T15:21:14.710Z,48.00
2019-03-30T15:23:44.556Z,47.70
2019-03-30T15:26:14.483Z,47.90
2019-03-30T15:28:44.383Z,48.10
2019-03-30T15:31:14.195Z,47.50
2019-03-30T15:33:43.935Z,47.60
2019-03-30T15:36:13.752Z,47.80
2019-03-30T15:38:44.401Z,47.40
2019-03-30T15:41:14.175Z,47.30
2019-03-30T15:43:43.987Z,47.80
2019-03-30T15:46:14.438Z,48.00
2019-03-30T15:48:44.309Z,47.80
2019-03-30T15:51:15.063Z,47.80
2019-03-30T15:53:45.399Z,47.70
2019-03-30T15:56:15.215Z,48.50
2019-03-30T15:58:45.072Z,48.40
2019-03-30T16:01:14.859Z,48.80
2019-03-30T16:03:44.704Z,49.80
2019-03-30T16:06:14.626Z,50.00
2019-03-30T16:08:44.430Z,50.30
2019-03-30T16:11:14.288Z,50.50
2019-03-30T16:13:43.956Z,50.80
2019-03-30T16:16:13.714Z,51.30
2019-03-30T16:18:43.542Z,51.30
2019-03-30T16:21:13.487Z,51.30
2019-03-30T16:23:43.740Z,51.40
2019-03-30T16:26:14.488Z,51.80
2019-03-30T16:28:44.342Z,52.00
2019-03-30T16:31:15.854Z,52.50
2019-03-30T16:33:47.001Z,52.60
2019-03-30T16:36:17.065Z,52.80
2019-03-30T16:38:48.054Z,53.10
2019-03-30T16:41:19.318Z,53.40
2019-03-30T16:43:49.104Z,54.00
2019-03-30T16:46:20.868Z,54.20
2019-03-30T16:48:51.343Z,54.40
2019-03-30T16:51:21.295Z,54.40
2019-03-30T16:53:51.840Z,54.60
2019-03-30T16:56:23.181Z,54.70
2019-03-30T16:58:53.056Z,54.80
2019-03-30T17:01:23.985Z,55.00
2019-03-30T17:03:54.736Z,55.10
2019-03-30T17:06:26.988Z,55.50
2019-03-30T17:08:57.427Z,55.50
2019-03-30T17:11:31.063Z,55.80
2019-03-30T17:14:02.823Z,56.70
2019-03-30T17:16:32.865Z,56.50
2019-03-30T17:19:02.789Z,56.50
2019-03-30T17:21:36.069Z,56.50
2019-03-30T17:24:06.144Z,56.80
2019-03-30T17:26:37.427Z,57.10
2019-03-30T17:29:09.759Z,57.40
2019-03-30T17:31:41.574Z,57.60
2019-03-30T17:34:11.368Z,57.70
2019-03-30T17:36:41.362Z,57.80
2019-03-30T17:39:13.028Z,58.10
2019-03-30T17:41:42.906Z,58.50
2019-03-30T17:44:14.291Z,58.80
2019-03-30T17:46:46.980Z,59.10
2019-03-30T17:49:19.780Z,59.50
2019-03-30T17:51:53.802Z,59.80
2019-03-30T17:54:22.256Z,60.10
2019-03-30T17:56:52.122Z,60.60
2019-03-30T17:59:23.860Z,60.60
2019-03-30T18:01:54.026Z,61.00
2019-03-30T18:04:25.508Z,61.10
2019-03-30T18:07:03.672Z,61.00
2019-03-30T18:09:35.038Z,61.40
2019-03-30T18:12:07.344Z,61.60
2019-03-30T18:14:37.900Z,62.20
2019-03-30T18:17:07.866Z,62.60
2019-03-30T18:19:39.775Z,62.80
2019-03-30T18:22:09.616Z,63.00
2019-03-30T18:24:39.477Z,63.20
2019-03-30T18:27:10.097Z,63.90
2019-03-30T18:29:40.040Z,64.20
2019-03-30T18:32:09.857Z,64.80
2019-03-30T18:34:41.107Z,66.40
2019-03-30T18:37:12.144Z,66.00
2019-03-30T18:39:43.395Z,66.60
2019-03-30T18:42:13.438Z,67.00
2019-03-30T18:44:45.034Z,67.40
2019-03-30T18:47:14.855Z,67.80
2019-03-30T18:49:44.858Z,68.10
2019-03-30T18:52:16.948Z,68.50
2019-03-30T18:54:48.641Z,68.70
2019-03-30T18:57:20.174Z,69.30
2019-03-30T18:59:50.290Z,69.40
2019-03-30T19:02:20.849Z,69.80
2019-03-30T19:04:51.956Z,70.00
2019-03-30T19:07:22.087Z,70.40
2019-03-30T19:09:52.793Z,70.80
2019-03-30T19:12:23.118Z,70.80
2019-03-30T19:14:53.076Z,71.10
2019-03-30T19:17:23.108Z,71.30
2019-03-30T19:19:53.023Z,71.60
2019-03-30T19:22:22.933Z,71.70
2019-03-30T19:24:52.696Z,71.90
2019-03-30T19:27:23.344Z,72.20
2019-03-30T19:29:53.195Z,72.30
2019-03-30T19:32:24.788Z,72.30
2019-03-30T19:34:54.660Z,72.50
2019-03-30T19:37:24.471Z,72.50
2019-03-30T19:39:55.213Z,72.50
2019-03-30T19:42:25.733Z,72.60
2019-03-30T19:44:55.679Z,72.80
2019-03-30T19:47:25.656Z,73.30
2019-03-30T19:49:55.853Z,73.40
2019-03-30T19:52:39.185Z,73.40
2019-03-30T19:54:57.376Z,73.50
2019-03-30T19:57:27.855Z,73.90
2019-03-30T20:00:00.360Z,74.00
2019-03-30T20:02:30.275Z,74.30
2019-03-30T20:05:02.958Z,74.50
2019-03-30T20:07:33.524Z,74.80
2019-03-30T20:10:08.514Z,74.90
2019-03-30T20:12:39.461Z,76.00
2019-03-30T20:15:10.896Z,75.40
2019-03-30T20:17:40.708Z,75.40
2019-03-30T20:20:12.577Z,75.50
2019-03-30T20:22:42.584Z,75.70
2019-03-30T20:25:12.674Z,75.60
2019-03-30T20:27:42.632Z,75.80
2019-03-30T20:30:14.346Z,76.00
2019-03-30T20:32:44.249Z,76.10
2019-03-30T20:35:16.676Z,76.30
2019-03-30T20:37:46.578Z,76.50
2019-03-30T20:40:16.502Z,76.70
2019-03-30T20:42:46.344Z,76.80
2019-03-30T20:45:17.197Z,76.90
2019-03-30T20:47:46.951Z,77.20
2019-03-30T20:50:17.259Z,77.40
2019-03-30T20:52:47.113Z,77.70
2019-03-30T20:55:17.213Z,78.10
2019-03-30T20:57:47.951Z,78.50
2019-03-30T21:00:18.470Z,78.50
2019-03-30T21:02:49.217Z,78.80
2019-03-30T21:05:19.663Z,79.00
2019-03-30T21:07:49.480Z,79.20
2019-03-30T21:10:19.609Z,79.50
2019-03-30T21:12:49.751Z,79.50
2019-03-30T21:15:21.170Z,79.70
2019-03-30T21:17:51.149Z,79.90
2019-03-30T21:20:21.004Z,80.10
2019-03-30T21:22:51.459Z,80.20
2019-03-30T21:25:21.310Z,80.30
2019-03-30T21:27:51.182Z,80.30
2019-03-30T21:30:21.219Z,80.60
2019-03-30T21:32:51.094Z,81.10
2019-03-30T21:35:21.150Z,81.00
2019-03-30T21:37:50.939Z,81.10
2019-03-30T21:40:20.800Z,81.20
2019-03-30T21:46:02.028Z,81.80
2019-03-30T21:48:31.899Z,82.00
2019-03-30T21:51:02.741Z,82.00
2019-03-30T21:53:32.648Z,82.20
2019-03-30T21:56:02.665Z,82.40
2019-03-30T21:58:32.435Z,82.40
2019-03-30T22:01:02.858Z,82.40
2019-03-30T22:03:32.725Z,82.60
2019-03-30T22:06:03.355Z,82.70
2019-03-30T22:08:34.028Z,82.60
2019-03-30T22:11:06.770Z,82.80
2019-03-30T22:13:37.499Z,82.90
2019-03-30T22:16:07.326Z,82.90
2019-03-30T22:18:37.163Z,83.20
2019-03-30T22:21:06.987Z,83.50
2019-03-30T22:23:36.750Z,83.70
2019-03-30T22:26:06.731Z,83.80
2019-03-30T22:28:36.693Z,83.90
2019-03-30T22:31:06.642Z,84.00
2019-03-30T22:33:36.414Z,84.20
2019-03-30T22:36:06.348Z,84.20
2019-03-30T22:38:36.284Z,84.40
2019-03-30T22:41:06.983Z,84.50
2019-03-30T22:43:36.797Z,84.70
2019-03-30T22:46:07.753Z,84.80
2019-03-30T22:48:37.793Z,84.70
2019-03-30T22:51:14.938Z,84.90
2019-03-30T22:53:44.751Z,84.90
2019-03-30T22:56:31.262Z,85.00
2019-03-30T22:59:01.065Z,85.10
2019-03-30T23:01:32.939Z,85.10
2019-03-30T23:04:04.403Z,85.20
2019-03-30T23:06:34.364Z,85.20
2019-03-30T23:09:13.507Z,85.40
2019-03-30T23:11:47.573Z,85.40
2019-03-30T23:14:19.723Z,85.60
2019-03-30T23:16:50.088Z,85.60
2019-03-30T23:19:21.509Z,85.90
2019-03-30T23:21:51.410Z,85.90
2019-03-30T23:24:23.138Z,86.10
2019-03-30T23:26:53.882Z,86.10
2019-03-30T23:29:23.667Z,86.20
2019-03-30T23:31:53.995Z,86.20
2019-03-30T23:34:25.081Z,86.10
2019-03-30T23:36:54.970Z,86.20
2019-03-30T23:39:24.873Z,86.10
2019-03-30T23:42:15.582Z,86.20
2019-03-30T23:44:47.174Z,86.20
2019-03-30T23:47:23.338Z,86.10
2019-03-30T23:49:57.192Z,86.10
2019-03-30T23:52:29.330Z,86.20
2019-03-30T23:55:01.331Z,86.30
2019-03-30T23:57:31.213Z,86.60
